createdAt,value
2022-08-26T00:01:57.861Z,98414.28
2022-08-26T00:04:26.593Z,98411.13
2022-08-26T00:06:56.346Z,98405.91
2022-08-26T00:09:25.350Z,98402.97
2022-08-26T00:11:54.580Z,98402.56
2022-08-26T00:14:28.274Z,98411.22
2022-08-26T00:16:59.563Z,98400.66
2022-08-26T00:19:27.710Z,98402.91
2022-08-26T00:21:55.807Z,98400.94
2022-08-26T00:24:23.845Z,98402.44
2022-08-26T00:26:55.205Z,98405.22
2022-08-26T00:29:23.212Z,98402.63
2022-08-26T00:31:51.392Z,98401.69
2022-08-26T00:34:20.824Z,98406.78
2022-08-26T00:36:51.988Z,98399.91
2022-08-26T00:39:21.150Z,98405.59
2022-08-26T00:41:49.136Z,98402.34
2022-08-26T00:44:18.484Z,98413.31
2022-08-26T00:46:50.181Z,98419.25
2022-08-26T00:49:22.848Z,98418.25
2022-08-26T00:51:53.777Z,98415.72
2022-08-26T00:54:26.750Z,98409.53
2022-08-26T00:56:59.938Z,98413.31
2022-08-26T00:59:32.654Z,98414.69
2022-08-26T01:02:02.890Z,98413.31
2022-08-26T01:04:36.285Z,98412.28
2022-08-26T01:07:05.456Z,98413.13
2022-08-26T01:09:33.851Z,98413.31
2022-08-26T01:12:03.536Z,98407.09
2022-08-26T01:14:36.709Z,98420.38
2022-08-26T01:17:07.241Z,98419.81
2022-08-26T01:19:42.488Z,98417.56
2022-08-26T01:22:16.845Z,98415.44
2022-08-26T01:24:47.258Z,98411.84
2022-08-26T01:27:20.660Z,98416.25
2022-08-26T01:29:50.439Z,98428.94
2022-08-26T01:32:23.455Z,98414.72
2022-08-26T01:34:51.891Z,98415.00
2022-08-26T01:37:21.707Z,98421.31
2022-08-26T01:39:56.409Z,98419.66
2022-08-26T01:42:27.373Z,98414.16
2022-08-26T01:45:01.120Z,98412.97
2022-08-26T01:47:32.333Z,98419.31
2022-08-26T01:50:03.361Z,98425.97
2022-08-26T01:52:35.524Z,98419.31
2022-08-26T01:55:06.761Z,98417.47
2022-08-26T01:57:37.243Z,98427.22
2022-08-26T02:00:08.844Z,98426.13
2022-08-26T02:02:36.909Z,98432.88
2022-08-26T02:05:07.831Z,98430.94
2022-08-26T02:07:35.772Z,98438.66
2022-08-26T02:10:07.089Z,98441.72
2022-08-26T02:12:35.352Z,98442.78
2022-08-26T02:15:08.526Z,98429.72
2022-08-26T02:17:42.550Z,98428.91
2022-08-26T02:20:15.006Z,98436.72
2022-08-26T02:22:45.870Z,98434.47
2022-08-26T02:25:23.068Z,98432.88
2022-08-26T02:27:51.491Z,98432.44
2022-08-26T02:30:23.506Z,98428.81
2022-08-26T02:32:51.892Z,98437.50
2022-08-26T02:35:22.221Z,98437.06
2022-08-26T02:37:52.151Z,98437.00
2022-08-26T02:40:25.344Z,98433.28
2022-08-26T02:42:56.001Z,98437.31
2022-08-26T02:45:26.332Z,98436.44
2022-08-26T02:47:55.827Z,98428.50
2022-08-26T02:50:25.705Z,98427.47
2022-08-26T02:52:54.242Z,98431.47
2022-08-26T02:55:24.787Z,98428.66
2022-08-26T02:57:53.208Z,98422.81
2022-08-26T03:00:21.573Z,98427.84
2022-08-26T03:02:51.851Z,98427.63
2022-08-26T03:05:22.169Z,98425.75
2022-08-26T03:07:52.680Z,98428.31
2022-08-26T03:10:23.727Z,98431.25
2022-08-26T03:12:54.086Z,98426.06
2022-08-26T03:15:22.380Z,98417.13
2022-08-26T03:17:50.791Z,98431.84
2022-08-26T03:20:19.277Z,98433.22
2022-08-26T03:22:47.444Z,98432.84
2022-08-26T03:25:18.611Z,98439.53
2022-08-26T03:27:47.996Z,98436.56
2022-08-26T03:30:34.804Z,98430.06
2022-08-26T03:33:03.421Z,98437.63
2022-08-26T03:35:32.804Z,98437.38
2022-08-26T03:38:01.206Z,98443.16
2022-08-26T03:40:30.248Z,98439.91
2022-08-26T03:42:59.692Z,98419.59
2022-08-26T03:45:28.069Z,98426.50
2022-08-26T03:47:56.076Z,98434.41
2022-08-26T03:50:27.250Z,98427.84
2022-08-26T03:52:56.421Z,98437.78
2022-08-26T03:55:26.933Z,98435.13
2022-08-26T03:57:55.897Z,98431.31
2022-08-26T04:00:25.529Z,98428.22
2022-08-26T04:02:53.893Z,98436.44
2022-08-26T04:05:23.599Z,98436.09
2022-08-26T04:07:52.338Z,98441.38
2022-08-26T04:10:28.537Z,98439.88
2022-08-26T04:12:58.792Z,98433.34
2022-08-26T04:15:28.804Z,98431.88
2022-08-26T04:17:57.382Z,98427.25
2022-08-26T04:20:25.860Z,98429.50
2022-08-26T04:22:53.891Z,98424.97
2022-08-26T04:25:22.603Z,98432.66
2022-08-26T04:27:52.376Z,98436.38
2022-08-26T04:30:21.292Z,98435.34
2022-08-26T04:32:51.080Z,98432.75
2022-08-26T04:35:22.804Z,98432.34
2022-08-26T04:37:53.954Z,98434.34
2022-08-26T04:40:22.032Z,98441.22
2022-08-26T04:42:50.351Z,98441.38
2022-08-26T04:45:22.571Z,98434.03
2022-08-26T04:47:56.443Z,98443.25
2022-08-26T04:50:26.593Z,98448.94
2022-08-26T04:52:55.442Z,98446.25
2022-08-26T04:55:38.537Z,98443.91
2022-08-26T04:58:10.742Z,98447.25
2022-08-26T05:00:39.532Z,98449.97
2022-08-26T05:03:10.218Z,98447.63
2022-08-26T05:05:40.115Z,98444.25
2022-08-26T05:08:08.482Z,98454.50
2022-08-26T05:10:41.291Z,98454.00
2022-08-26T05:13:10.952Z,98452.13
2022-08-26T05:15:39.834Z,98454.81
2022-08-26T05:18:11.585Z,98455.81
2022-08-26T05:20:41.070Z,98456.84
2022-08-26T05:23:09.406Z,98455.34
2022-08-26T05:25:39.013Z,98456.66
2022-08-26T05:28:07.827Z,98446.91
2022-08-26T05:30:36.041Z,98452.56
2022-08-26T05:33:04.734Z,98455.72
2022-08-26T05:35:35.034Z,98458.88
2022-08-26T05:38:03.997Z,98461.81
2022-08-26T05:40:36.789Z,98456.56
2022-08-26T05:43:10.482Z,98459.72
2022-08-26T05:45:42.336Z,98472.72
2022-08-26T05:48:14.601Z,98459.06
2022-08-26T05:50:46.734Z,98457.16
2022-08-26T05:53:17.503Z,98467.16
2022-08-26T05:55:49.732Z,98461.38
2022-08-26T05:58:20.302Z,98466.22
2022-08-26T06:00:57.181Z,98463.25
2022-08-26T06:03:27.571Z,98464.31
2022-08-26T06:05:57.049Z,98463.66
2022-08-26T06:08:25.749Z,98470.47
2022-08-26T06:10:56.687Z,98476.84
2022-08-26T06:13:27.175Z,98474.50
2022-08-26T06:15:59.375Z,98473.53
2022-08-26T06:18:32.640Z,98465.94
2022-08-26T06:21:03.457Z,98469.94
2022-08-26T06:23:48.795Z,98476.41
2022-08-26T06:26:18.608Z,98484.34
2022-08-26T06:28:47.156Z,98475.91
2022-08-26T06:31:15.955Z,98475.38
2022-08-26T06:33:44.471Z,98481.59
2022-08-26T06:36:19.494Z,98487.22
2022-08-26T06:38:48.579Z,98483.97
2022-08-26T06:41:17.093Z,98484.16
2022-08-26T06:43:45.903Z,98492.19
2022-08-26T06:46:16.645Z,98495.38
2022-08-26T06:48:45.256Z,98499.81
2022-08-26T06:51:14.971Z,98489.25
2022-08-26T06:53:47.020Z,98490.31
2022-08-26T06:56:18.997Z,98496.78
2022-08-26T06:58:47.112Z,98499.03
2022-08-26T07:01:20.001Z,98494.63
2022-08-26T07:03:49.257Z,98495.09
2022-08-26T07:06:19.793Z,98484.50
2022-08-26T07:08:50.418Z,98496.66
2022-08-26T07:11:20.161Z,98500.66
2022-08-26T07:13:48.932Z,98503.06
2022-08-26T07:16:18.706Z,98500.19
2022-08-26T07:18:48.622Z,98507.09
2022-08-26T07:21:18.421Z,98514.03
2022-08-26T07:23:48.988Z,98498.16
2022-08-26T07:26:19.056Z,98509.03
2022-08-26T07:28:48.811Z,98503.59
2022-08-26T07:31:17.897Z,98510.88
2022-08-26T07:33:46.900Z,98510.47
2022-08-26T07:36:16.094Z,98511.28
2022-08-26T07:38:45.565Z,98509.84
2022-08-26T07:41:16.998Z,98513.19
2022-08-26T07:43:46.211Z,98514.22
2022-08-26T07:46:20.845Z,98514.03
2022-08-26T07:48:56.503Z,98516.50
2022-08-26T07:51:25.094Z,98512.53
2022-08-26T07:53:56.992Z,98515.09
2022-08-26T07:56:54.412Z,98503.59
2022-08-26T07:59:27.288Z,98515.50
2022-08-26T08:02:02.166Z,98518.44
2022-08-26T08:04:31.471Z,98519.66
2022-08-26T08:06:59.686Z,98520.91
2022-08-26T08:09:31.282Z,98514.84
2022-08-26T08:12:00.901Z,98512.31
2022-08-26T08:14:33.502Z,98514.81
2022-08-26T08:17:07.796Z,98514.38
2022-08-26T08:22:58.092Z,98513.94
2022-08-26T08:25:58.927Z,98520.00
2022-08-26T08:29:00.886Z,98530.41
2022-08-26T08:31:58.511Z,98518.16
2022-08-26T08:34:32.941Z,98518.34
2022-08-26T08:46:01.816Z,98525.41
2022-08-26T08:48:37.015Z,98471.13
2022-08-26T09:02:37.687Z,98482.72
2022-08-26T09:52:40.514Z,98519.31
2022-08-26T10:04:15.900Z,98458.16
2022-08-26T10:06:56.961Z,98504.25
2022-08-26T10:09:29.881Z,98504.63
2022-08-26T10:12:04.613Z,98502.66
2022-08-26T10:14:40.088Z,98484.66
2022-08-26T10:17:30.805Z,98434.03
2022-08-26T10:22:54.292Z,98463.31
2022-08-26T10:25:29.234Z,98451.81
2022-08-26T10:28:05.821Z,98494.06
2022-08-26T10:30:39.382Z,98445.44
2022-08-26T10:37:33.444Z,98484.50
2022-08-26T10:43:40.827Z,98415.41
2022-08-26T10:49:07.822Z,98473.78
2022-08-26T10:59:10.341Z,98459.84
2022-08-26T11:02:03.947Z,98437.13
2022-08-26T11:05:56.252Z,98392.25
2022-08-26T11:08:34.708Z,98415.81
2022-08-26T11:14:58.787Z,98418.91
2022-08-26T11:18:23.096Z,98453.16
2022-08-26T11:21:05.065Z,98442.00
2022-08-26T11:24:08.969Z,98429.50
2022-08-26T11:26:55.564Z,98414.72
2022-08-26T11:29:59.385Z,98407.16
2022-08-26T11:32:46.175Z,98443.59
2022-08-26T11:35:52.269Z,98397.53
2022-08-26T11:38:26.734Z,98432.16
2022-08-26T11:41:18.613Z,98412.94
2022-08-26T11:43:49.480Z,98443.38
2022-08-26T11:46:25.653Z,98432.25
2022-08-26T11:49:02.197Z,98438.81
2022-08-26T11:51:32.900Z,98436.16
2022-08-26T11:54:12.182Z,98436.31
2022-08-26T11:56:42.166Z,98428.16
2022-08-26T11:59:12.636Z,98430.53
2022-08-26T12:01:44.374Z,98428.03
2022-08-26T12:04:18.831Z,98435.06
2022-08-26T12:06:52.134Z,98430.78
2022-08-26T12:09:23.598Z,98429.81
2022-08-26T12:11:52.840Z,98413.75
2022-08-26T12:14:27.779Z,98428.06
2022-08-26T12:17:10.300Z,98422.28
2022-08-26T12:19:38.594Z,98420.91
2022-08-26T12:22:16.224Z,98427.72
2022-08-26T12:24:48.837Z,98422.50
2022-08-26T12:27:22.167Z,98415.41
2022-08-26T12:30:03.325Z,98422.41
2022-08-26T12:32:35.515Z,98415.34
2022-08-26T12:37:39.922Z,98419.69
2022-08-26T12:40:32.746Z,98423.31
2022-08-26T12:43:02.167Z,98420.94
2022-08-26T12:45:32.949Z,98418.25
2022-08-26T12:48:03.758Z,98421.00
2022-08-26T12:50:34.138Z,98403.03
2022-08-26T12:53:07.120Z,98414.09
2022-08-26T12:55:39.424Z,98400.47
2022-08-26T12:58:22.158Z,98401.38
2022-08-26T13:00:50.887Z,98403.41
2022-08-26T13:03:46.644Z,98407.66
2022-08-26T13:06:27.972Z,98402.00
2022-08-26T13:08:59.782Z,98404.97
2022-08-26T13:11:30.037Z,98395.28
2022-08-26T13:14:00.406Z,98401.16
2022-08-26T13:16:30.543Z,98396.94
2022-08-26T13:19:01.915Z,98392.97
2022-08-26T13:21:37.425Z,98376.09
2022-08-26T13:24:11.779Z,98381.34
2022-08-26T13:26:39.914Z,98382.94
2022-08-26T13:29:10.388Z,98375.88
2022-08-26T13:31:41.265Z,98379.34
2022-08-26T13:34:10.718Z,98380.00
2022-08-26T13:36:39.435Z,98375.81
2022-08-26T13:39:09.336Z,98375.28
2022-08-26T13:41:37.625Z,98373.16
2022-08-26T13:44:07.588Z,98378.34
2022-08-26T13:46:35.888Z,98375.16
2022-08-26T13:49:04.372Z,98368.78
2022-08-26T13:51:41.938Z,98371.31
2022-08-26T14:30:57.139Z,98333.38
2022-08-26T14:33:31.889Z,98314.81
2022-08-26T14:36:20.525Z,98292.59
2022-08-26T14:38:48.694Z,98316.63
2022-08-26T14:41:24.782Z,98309.56
2022-08-26T14:43:58.053Z,98278.56
2022-08-26T14:46:30.289Z,98314.72
2022-08-26T14:49:02.001Z,98308.38
2022-08-26T14:51:30.687Z,98305.41
2022-08-26T14:54:14.012Z,98312.19
2022-08-26T14:56:46.348Z,98313.00
2022-08-26T14:59:16.158Z,98310.31
2022-08-26T15:01:52.108Z,98309.81
2022-08-26T15:04:23.880Z,98297.75
2022-08-26T15:06:53.596Z,98324.59
2022-08-26T15:09:22.442Z,98325.84
2022-08-26T15:11:51.659Z,98322.97
2022-08-26T15:14:20.131Z,98330.59
2022-08-26T15:16:51.581Z,98329.19
2022-08-26T15:19:19.734Z,98345.44
2022-08-26T15:21:48.650Z,98356.38
2022-08-26T15:24:20.865Z,98363.19
2022-08-26T15:26:50.295Z,98364.00
2022-08-26T15:29:18.815Z,98357.09
2022-08-26T15:31:57.171Z,98350.22
2022-08-26T15:34:36.253Z,98341.94
2022-08-26T15:39:47.668Z,98307.22
2022-08-26T15:45:49.016Z,98294.53
2022-08-26T15:48:17.237Z,98335.19
2022-08-26T15:50:52.723Z,98304.19
2022-08-26T15:53:23.905Z,98326.91
2022-08-26T15:55:57.593Z,98344.97
2022-08-26T15:58:27.018Z,98299.38
2022-08-26T16:01:00.072Z,98301.47
2022-08-26T16:03:49.755Z,98308.88
2022-08-26T16:08:19.696Z,98316.56
2022-08-26T16:09:34.418Z,98349.50
2022-08-26T16:12:02.796Z,98306.06
2022-08-26T16:14:31.401Z,98330.53
2022-08-26T16:17:05.615Z,98306.19
2022-08-26T16:20:55.321Z,98318.53
2022-08-26T16:27:00.460Z,98353.25
2022-08-26T16:29:43.334Z,98358.38
2022-08-26T16:35:46.321Z,98339.75
2022-08-26T16:38:58.518Z,98385.38
2022-08-26T16:41:31.779Z,98384.06
2022-08-26T16:44:55.841Z,98382.09
2022-08-26T16:50:06.720Z,98391.44
2022-08-26T16:52:35.066Z,98346.59
2022-08-26T16:55:28.562Z,98388.31
2022-08-26T16:57:58.279Z,98355.47
2022-08-26T17:04:47.295Z,98401.56
2022-08-26T17:07:34.973Z,98340.94
2022-08-26T17:10:03.951Z,98353.03
2022-08-26T17:12:35.462Z,98413.22
2022-08-26T17:15:06.696Z,98402.22
2022-08-26T17:17:36.216Z,98445.09
2022-08-26T17:28:17.883Z,98418.88
2022-08-26T17:30:47.404Z,98375.72
2022-08-26T17:39:15.783Z,98440.56
2022-08-26T17:42:00.678Z,98422.88
2022-08-26T17:45:25.772Z,98446.22
2022-08-26T17:52:33.219Z,98406.59
2022-08-26T17:55:01.501Z,98359.88
2022-08-26T17:57:30.679Z,98404.91
2022-08-26T18:00:00.550Z,98358.56
2022-08-26T18:08:03.380Z,98373.78
2022-08-26T18:10:31.508Z,98457.25
2022-08-26T18:12:59.640Z,98463.16
2022-08-26T18:15:27.641Z,98445.81
2022-08-26T18:17:55.662Z,98462.34
2022-08-26T18:20:23.874Z,98466.03
2022-08-26T18:22:54.221Z,98464.88
2022-08-26T18:25:23.767Z,98465.31
2022-08-26T18:27:51.784Z,98460.53
2022-08-26T18:30:23.081Z,98465.91
2022-08-26T18:32:52.299Z,98458.50
2022-08-26T18:35:21.392Z,98453.91
2022-08-26T18:37:49.489Z,98453.03
2022-08-26T18:40:17.736Z,98468.84
2022-08-26T18:42:47.200Z,98481.13
2022-08-26T18:45:23.427Z,98484.16
2022-08-26T18:47:51.667Z,98491.22
2022-08-26T18:50:19.975Z,98490.59
2022-08-26T18:52:48.249Z,98490.34
2022-08-26T18:55:16.630Z,98493.25
2022-08-26T18:57:46.470Z,98503.69
2022-08-26T19:00:15.433Z,98505.28
2022-08-26T19:06:02.899Z,98475.38
2022-08-26T19:16:49.118Z,98458.38
2022-08-26T19:45:37.185Z,98546.19
2022-08-26T19:48:30.930Z,98591.25
2022-08-26T19:50:59.396Z,98530.47
2022-08-26T19:53:27.605Z,98588.69
2022-08-26T19:55:55.966Z,98550.22
2022-08-26T19:58:24.318Z,98588.66
2022-08-26T20:00:54.014Z,98566.81
2022-08-26T20:03:23.419Z,98601.63
2022-08-26T20:05:52.044Z,98611.34
2022-08-26T20:08:22.467Z,98615.66
2022-08-26T20:10:51.077Z,98609.81
2022-08-26T20:13:19.817Z,98610.50
2022-08-26T20:15:47.961Z,98611.31
2022-08-26T20:18:35.002Z,98612.38
2022-08-26T20:21:20.170Z,98601.88
2022-08-26T20:23:48.688Z,98589.22
2022-08-26T20:26:16.738Z,98590.75
2022-08-26T20:28:44.800Z,98587.94
2022-08-26T20:31:13.105Z,98580.78
2022-08-26T20:33:46.325Z,98575.94
2022-08-26T20:36:15.625Z,98564.94
2022-08-26T20:38:45.307Z,98576.44
2022-08-26T20:41:13.550Z,98569.94
2022-08-26T20:43:42.880Z,98573.81
2022-08-26T20:46:18.819Z,98565.69
2022-08-26T20:48:50.066Z,98549.56
2022-08-26T20:51:19.813Z,98569.41
2022-08-26T20:53:48.140Z,98561.34
2022-08-26T20:56:21.846Z,98552.09
2022-08-26T20:58:50.616Z,98542.66
2022-08-26T21:01:20.921Z,98528.06
2022-08-26T21:03:51.907Z,98521.00
2022-08-26T21:06:20.307Z,98523.56
2022-08-26T21:08:48.565Z,98514.00
2022-08-26T21:11:17.363Z,98514.22
2022-08-26T21:14:03.793Z,98512.81
2022-08-26T21:16:33.318Z,98496.34
2022-08-26T21:19:03.032Z,98500.53
2022-08-26T21:21:31.041Z,98496.22
2022-08-26T21:23:59.061Z,98506.78
2022-08-26T21:26:27.802Z,98509.16
2022-08-26T21:28:55.822Z,98505.59
2022-08-26T21:31:26.472Z,98508.94
2022-08-26T21:33:54.919Z,98514.84
2022-08-26T21:36:24.417Z,98516.16
2022-08-26T21:38:52.481Z,98529.63
2022-08-26T21:41:22.676Z,98547.75
2022-08-26T21:43:51.941Z,98549.56
2022-08-26T21:46:22.085Z,98565.16
2022-08-26T21:48:51.724Z,98564.84
2022-08-26T21:51:22.963Z,98574.53
2022-08-26T21:53:53.523Z,98573.69
2022-08-26T21:56:23.092Z,98579.97
2022-08-26T21:58:52.450Z,98589.19
2022-08-26T22:01:23.023Z,98590.53
2022-08-26T22:03:52.661Z,98594.03
2022-08-26T22:06:23.434Z,98610.94
2022-08-26T22:08:54.070Z,98610.53
2022-08-26T22:11:22.317Z,98611.53
2022-08-26T22:13:52.322Z,98606.66
2022-08-26T22:16:20.933Z,98617.19
2022-08-26T22:18:49.156Z,98594.09
2022-08-26T22:21:20.035Z,98604.81
2022-08-26T22:23:48.509Z,98594.81
2022-08-26T22:26:25.470Z,98606.75
2022-08-26T22:28:58.794Z,98603.75
2022-08-26T22:31:37.577Z,98601.56
2022-08-26T22:34:07.932Z,98610.72
2022-08-26T22:36:39.802Z,98608.25
2022-08-26T22:39:12.610Z,98616.47
2022-08-26T22:41:42.215Z,98611.59
2022-08-26T22:44:11.842Z,98613.06
2022-08-26T22:46:41.310Z,98621.84
2022-08-26T22:49:09.968Z,98621.19
2022-08-26T22:51:38.079Z,98617.66
2022-08-26T22:54:06.728Z,98614.00
2022-08-26T22:56:36.018Z,98625.63
2022-08-26T22:59:06.885Z,98622.81
2022-08-26T23:01:36.980Z,98630.56
2022-08-26T23:04:07.403Z,98627.34
2022-08-26T23:06:36.880Z,98622.47
2022-08-26T23:09:05.670Z,98620.06
2022-08-26T23:11:34.137Z,98609.31
2022-08-26T23:14:02.332Z,98619.13
2022-08-26T23:16:38.014Z,98617.41
2022-08-26T23:19:08.240Z,98618.19
2022-08-26T23:21:36.408Z,98613.00
2022-08-26T23:24:05.225Z,98621.44
2022-08-26T23:26:33.681Z,98612.41
2022-08-26T23:29:02.726Z,98611.53
2022-08-26T23:31:30.915Z,98615.13
2022-08-26T23:34:20.370Z,98598.97
2022-08-26T23:36:48.543Z,98604.56
2022-08-26T23:39:16.700Z,98606.06
2022-08-26T23:41:44.687Z,98605.50
2022-08-26T23:44:13.538Z,98601.13
2022-08-26T23:46:41.641Z,98597.06
2022-08-26T23:49:11.041Z,98598.84
2022-08-26T23:51:56.881Z,98589.47
2022-08-26T23:54:24.891Z,98596.34
2022-08-26T23:56:52.945Z,98589.03
2022-08-26T23:59:21.396Z,98593.28
